Etusivu
METAR-TAF:

METAR-TAF

Lentoasemat :

Entrammes

Laval, Ranska

Leveyspiiri: 48-01-56N, Pituuspiiri: 000-44-34W, korkeus merenpinnasta: 101 m

Tämänhetkinen sää

Tämä raportti tehtiin 36 minuuttia sitten, kello 13.00 UTC
Tuuli 7 kn pohjoisen/luoteesta, vaihdellen lännen ja pohjoisen/koillisen välillä
Lämpötila 21°C
Kosteus 53%
Ilmanpaine 1019 hPa
Näkyvyys 10 km tai enemmän
Muutamia pilviä 4700 ft:n korkeudessa
Hajonneita pilviä 5600 ft:n korkeudessa

METAR: LFOV 101300Z AUTO 34007KT 270V020 9999 FEW047 BKN056 21/11 Q1019

Aika: 15:36 (13:36 UTC)


TAF: puuttuu

Säähavainnot ja -ennusteet yli 4000 lentoasemalta (METAR- ja TAF-raportit).

Käytössä olevat sääasemat on merkitty karttaan keltaisilla ja punaisilla pisteillä.

Aseta hiiri pisteen päälle nähdäksesi sääaseman nimen.

Klikkaa sitten nähdäksesi säähavainnot ja -ennusteet.

Kartan vaihtaminen: klikkaa mustalla rastilla varustettuja vihreitä pisteitä, niin voit zoomata sisään; viivalla varustettua vihreää pistettä, niin voit zoomata ulos tai vihreitä nuolia, niin pääset viereisille kartoille.


METAR-TAF: